Aviation Digital Data Service (ADDS)

Output produced by METARs form (0005 UTC 22 November 2014)
found at http://aviationweather.gov/adds/metars/
 
KRWI 212325Z 2200/2224 VRB02KT P6SM FEW250 
     FM221800 20004KT P6SM FEW250